.
WxDataArchive / Data Records for 2010-02-23
2010-02-22 February 2010 2010-02-24

Data Records for Tuesday, 23 February 2010

Time	Temp	Chill	HIndex	Humid	Dewpt	 Wind 	HiWind	WindDir	Rain 	Barom 
-----	----	-----	------	-----	-----	------	------	-------	-----	----- 
00:00	31.2	31.2	31.2	85	27.2	1	3	270	0.00	29.811 
00:05	31.2	31.2	31.2	85	27.2	0	1	270	0.00	29.811 
00:10	31.2	31.2	31.2	85	27.2	0	2	270	0.00	29.811 
00:15	31.2	31.2	31.2	85	27.2	0	2	270	0.00	29.813 
00:20	31.2	31.2	31.2	85	27.2	0	1	270	0.00	29.813 
00:25	31.0	31.0	31.0	85	27.0	0	2	270	0.00	29.813 
00:30	31.0	31.0	31.0	85	27.0	0	2	270	0.00	29.805 
00:35	31.0	31.0	31.0	85	27.0	0	3	270	0.00	29.805 
00:40	31.0	31.0	31.0	85	27.0	0	1	270	0.00	29.805 
00:45	31.0	31.0	31.0	85	27.0	0	1	270	0.00	29.807 
00:50	30.9	30.9	30.9	85	26.9	0	2	270	0.00	29.807 
00:55	30.9	30.9	30.9	85	26.9	0	2	270	0.00	29.807 
01:00	30.9	30.9	30.9	85	26.9	0	0	---	0.00	29.816 
01:05	30.9	30.9	30.9	85	26.9	0	1	270	0.00	29.816 
01:10	30.9	30.9	30.9	85	26.9	0	3	270	0.00	29.816 
01:15	30.9	30.9	30.9	85	26.9	0	1	270	0.00	29.819 
01:20	30.9	30.9	30.9	85	26.9	0	1	270	0.00	29.819 
01:25	30.9	30.9	30.9	85	26.9	0	1	270	0.00	29.819 
01:30	31.0	31.0	31.0	85	27.0	0	1	270	0.00	29.822 
01:35	31.0	31.0	31.0	85	27.0	0	0	---	0.00	29.822 
01:40	30.9	30.9	30.9	85	26.9	0	1	270	0.00	29.822 
01:45	30.9	30.9	30.9	85	26.9	0	1	270	0.00	29.813 
01:50	30.9	30.9	30.9	85	26.9	0	0	---	0.00	29.813 
01:55	30.9	30.9	30.9	85	26.9	0	1	270	0.00	29.813 
02:00	30.7	30.7	30.7	85	26.7	0	1	270	0.00	29.810 
02:05	30.7	30.7	30.7	85	26.7	0	1	270	0.00	29.810 
02:10	30.7	30.7	30.7	85	26.7	0	1	270	0.00	29.810 
02:15	30.7	30.7	30.7	84	26.4	0	1	270	0.00	29.815 
02:20	30.6	30.6	30.6	84	26.4	0	2	270	0.00	29.815 
02:25	30.6	30.6	30.6	84	26.4	0	1	270	0.00	29.815 
02:30	30.6	30.6	30.6	84	26.4	0	2	270	0.00	29.815 
02:35	30.6	30.6	30.6	84	26.4	0	1	270	0.00	29.815 
02:40	30.6	30.6	30.6	84	26.4	0	2	270	0.00	29.815 
02:45	30.6	30.6	30.6	84	26.4	0	1	270	0.00	29.817 
02:50	30.6	30.6	30.6	84	26.4	0	2	270	0.00	29.817 
02:55	30.6	30.6	30.6	84	26.4	0	1	270	0.00	29.817 
03:00	30.6	30.6	30.6	84	26.4	0	1	270	0.00	29.816 
03:05	30.6	30.6	30.6	84	26.4	0	0	---	0.00	29.816 
03:10	30.6	30.6	30.6	84	26.4	0	1	270	0.00	29.816 
03:15	30.6	30.6	30.6	84	26.4	0	0	---	0.00	29.816 
03:20	30.6	30.6	30.6	84	26.4	0	2	270	0.00	29.816 
03:25	30.6	30.6	30.6	84	26.4	0	1	270	0.00	29.816 
03:30	30.6	30.6	30.6	84	26.4	0	3	270	0.00	29.814 
03:35	30.6	30.6	30.6	84	26.4	0	1	270	0.00	29.814 
03:40	30.6	30.6	30.6	84	26.4	0	0	---	0.00	29.814 
03:45	30.6	30.6	30.6	85	26.6	0	0	---	0.00	29.805 
03:50	30.4	30.4	30.4	85	26.4	0	0	---	0.00	29.805 
03:55	30.4	30.4	30.4	85	26.4	0	1	270	0.00	29.805 
04:00	30.4	30.4	30.4	85	26.4	0	0	---	0.00	29.802 
04:05	30.4	30.4	30.4	85	26.4	0	1	270	0.00	29.802 
04:10	30.4	30.4	30.4	86	26.7	0	0	---	0.00	29.802 
04:15	30.4	30.4	30.4	86	26.7	0	0	---	0.00	29.807 
04:20	30.4	30.4	30.4	86	26.7	0	0	---	0.00	29.807 
04:25	30.4	30.4	30.4	86	26.7	0	0	---	0.00	29.807 
04:30	30.4	30.4	30.4	86	26.7	0	0	---	0.00	29.812 
04:35	30.4	30.4	30.4	86	26.7	0	0	---	0.00	29.812 
04:40	30.4	30.4	30.4	86	26.7	0	0	---	0.00	29.812 
04:45	30.4	30.4	30.4	86	26.7	0	0	---	0.00	29.817 
04:50	30.4	30.4	30.4	86	26.7	0	0	---	0.00	29.817 
04:55	30.4	30.4	30.4	86	26.7	0	0	---	0.00	29.817 
05:00	30.4	30.4	30.4	86	26.7	0	0	---	0.00	29.822 
05:05	30.4	30.4	30.4	87	27.0	0	0	---	0.00	29.822 
05:10	30.4	30.4	30.4	87	27.0	0	0	---	0.00	29.822 
05:15	30.4	30.4	30.4	87	27.0	0	0	---	0.00	29.827 
05:20	30.4	30.4	30.4	87	27.0	0	0	---	0.00	29.827 
05:25	30.4	30.4	30.4	87	27.0	0	1	270	0.00	29.827 
05:30	30.4	30.4	30.4	87	27.0	0	1	270	0.00	29.830 
05:35	30.4	30.4	30.4	87	27.0	0	1	270	0.00	29.830 
05:40	30.4	30.4	30.4	87	27.0	0	0	---	0.00	29.830 
05:45	30.4	30.4	30.4	87	27.0	0	0	---	0.00	29.833 
05:50	30.4	30.4	30.4	87	27.0	0	0	---	0.00	29.833 
05:55	30.4	30.4	30.4	87	27.0	0	1	270	0.00	29.833 
06:00	30.4	30.4	30.4	87	27.0	0	1	270	0.00	29.837 
06:05	30.4	30.4	30.4	87	27.0	0	0	---	0.00	29.837 
06:10	30.4	30.4	30.4	87	27.0	0	1	270	0.00	29.837 
06:15	30.4	30.4	30.4	87	27.0	0	0	---	0.00	29.838 
06:20	30.4	30.4	30.4	87	27.0	0	0	---	0.00	29.838 
06:25	30.4	30.4	30.4	87	27.0	0	1	270	0.00	29.838 
06:30	30.4	30.4	30.4	87	27.0	0	1	270	0.00	29.845 
06:35	30.4	30.4	30.4	87	27.0	0	0	---	0.00	29.845 
06:40	30.4	30.4	30.4	87	27.0	0	1	270	0.00	29.845 
06:45	30.6	30.6	30.6	87	27.2	0	1	270	0.00	29.849 
06:50	30.6	30.6	30.6	87	27.2	0	2	270	0.00	29.849 
06:55	30.6	30.6	30.6	87	27.2	0	1	270	0.00	29.849 
07:00	30.6	30.6	30.6	87	27.2	0	0	---	0.00	29.850 
07:05	30.6	30.6	30.6	87	27.2	0	2	270	0.00	29.850 
07:10	30.6	30.6	30.6	88	27.5	0	1	270	0.00	29.850 
07:15	30.6	30.6	30.6	88	27.5	0	1	270	0.00	29.851 
07:20	30.6	30.6	30.6	88	27.5	0	2	270	0.00	29.851 
07:25	30.6	30.6	30.6	88	27.5	0	1	270	0.00	29.851 
07:30	30.6	30.6	30.6	89	27.8	0	2	270	0.00	29.860 
07:35	30.6	30.6	30.6	89	27.8	0	2	270	0.00	29.860 
07:40	30.6	30.6	30.6	89	27.8	0	2	270	0.00	29.860 
07:45	30.6	30.6	30.6	90	28.0	0	2	270	0.00	29.861 
07:50	30.6	30.6	30.6	90	28.0	0	1	270	0.00	29.861 
07:55	30.6	30.6	30.6	90	28.0	0	1	270	0.00	29.861 
08:00	30.6	30.6	30.6	90	28.0	0	2	270	0.00	29.866 
08:05	30.6	30.6	30.6	91	28.3	0	1	270	0.00	29.866 
08:10	30.7	30.7	30.7	91	28.4	0	0	---	0.00	29.866 
08:15	30.7	30.7	30.7	91	28.4	0	0	---	0.00	29.868 
08:20	30.7	30.7	30.7	91	28.4	0	1	292	0.00	29.868 
08:25	30.7	30.7	30.7	91	28.4	0	1	292	0.00	29.868 
08:30	30.7	30.7	30.7	91	28.4	0	1	292	0.00	29.869 
08:35	30.7	30.7	30.7	92	28.7	0	1	292	0.00	29.869 
08:40	30.9	30.9	30.9	92	28.9	0	2	292	0.00	29.869 
08:45	31.2	31.2	31.2	92	29.2	0	2	292	0.00	29.870 
08:50	31.3	31.3	31.3	92	29.3	0	1	292	0.00	29.870 
08:55	31.5	31.5	31.5	92	29.4	0	1	292	0.00	29.870 
09:00	31.6	31.6	31.6	92	29.5	0	3	270	0.00	29.875 
09:05	31.8	31.8	31.8	92	29.7	0	2	270	0.00	29.875 
09:10	31.8	31.8	31.8	92	29.7	1	3	248	0.00	29.875 
09:15	31.8	31.8	31.8	91	29.5	1	4	248	0.00	29.877 
09:20	31.9	31.9	31.9	91	29.6	0	1	248	0.00	29.877 
09:25	32.2	32.2	32.2	91	29.9	0	2	248	0.00	29.877 
09:30	32.4	32.4	32.4	91	30.1	0	2	248	0.00	29.875 
09:35	32.7	32.7	32.7	91	30.4	0	3	248	0.00	29.875 
09:40	32.8	32.8	32.8	90	30.2	1	4	248	0.00	29.875 
09:45	32.9	32.9	32.9	90	30.3	0	2	248	0.00	29.880 
09:50	33.1	33.1	33.1	89	30.2	1	4	248	0.00	29.880 
09:55	32.9	32.9	32.9	89	30.0	1	2	225	0.01	29.880 
10:00	33.1	33.1	33.1	88	29.9	1	2	225	0.00	29.880 
10:05	33.1	33.1	33.1	88	29.9	1	2	338	0.00	29.880 
10:10	33.1	33.1	33.1	87	29.7	1	3	248	0.00	29.880 
10:15	33.2	33.2	33.2	86	29.5	1	2	248	0.00	29.881 
10:20	33.2	33.2	33.2	85	29.2	1	3	338	0.00	29.881 
10:25	33.2	33.2	33.2	85	29.2	1	3	270	0.01	29.881 
10:30	33.4	33.4	33.4	84	29.1	1	3	270	0.00	29.881 
10:35	33.5	33.5	33.5	84	29.2	1	3	270	0.00	29.881 
10:40	33.7	33.7	33.7	83	29.1	0	2	270	0.00	29.881 
10:45	33.7	33.7	33.7	82	28.8	1	3	270	0.00	29.880 
10:50	33.8	33.8	33.8	82	28.9	1	3	292	0.00	29.880 
10:55	34.0	34.0	34.0	80	28.5	1	4	315	0.00	29.880 
11:00	34.3	34.3	34.3	80	28.8	1	3	248	0.00	29.880 
11:05	34.3	34.3	34.3	80	28.8	1	3	248	0.00	29.880 
11:10	34.1	34.1	34.1	79	28.3	1	3	270	0.00	29.880 
11:15	34.3	34.3	34.3	78	28.2	2	5	248	0.00	29.883 
11:20	34.4	34.4	34.4	77	27.9	1	4	248	0.00	29.883 
11:25	34.6	34.6	34.6	77	28.1	1	3	315	0.00	29.883 
11:30	34.7	34.7	34.7	76	27.9	1	3	315	0.00	29.880 
11:35	34.6	34.6	34.6	77	28.1	2	4	248	0.00	29.880 
11:40	34.6	34.6	34.6	75	27.5	1	3	315	0.00	29.880 
11:45	34.7	34.7	34.7	74	27.3	1	4	270	0.00	29.883 
11:50	35.0	35.0	35.0	74	27.6	1	3	270	0.00	29.883 
11:55	35.3	35.3	35.3	74	27.9	1	3	270	0.00	29.883 
12:00	35.6	35.6	35.6	73	27.8	1	4	248	0.00	29.889 
12:05	35.5	35.5	35.5	72	27.4	2	4	270	0.00	29.889 
12:10	35.3	35.3	35.3	73	27.5	1	3	270	0.00	29.889 
12:15	35.6	35.6	35.6	74	28.1	1	2	292	0.00	29.886 
12:20	36.5	36.5	36.5	71	28.0	2	5	248	0.00	29.886 
12:25	37.0	37.0	37.0	70	28.1	1	3	248	0.00	29.886 
12:30	37.2	37.2	37.2	69	28.0	1	4	248	0.00	29.883 
12:35	36.8	36.8	36.8	69	27.6	1	4	248	0.00	29.883 
12:40	36.0	36.0	36.0	68	26.5	2	5	338	0.00	29.883 
12:45	35.8	35.8	35.8	69	26.6	1	3	315	0.00	29.883 
12:50	35.8	35.8	35.8	69	26.6	1	3	338	0.00	29.883 
12:55	35.8	35.8	35.8	69	26.6	1	3	338	0.00	29.883 
13:00	35.9	35.9	35.9	69	26.7	1	3	338	0.00	29.880 
13:05	36.0	36.0	36.0	69	26.8	1	3	315	0.00	29.880 
13:10	36.2	36.2	36.2	68	26.7	1	2	315	0.00	29.880 
13:15	36.6	36.6	36.6	69	27.4	1	2	315	0.00	29.877 
13:20	36.9	36.9	36.9	68	27.3	1	4	248	0.00	29.877 
13:25	37.0	37.0	37.0	68	27.4	1	5	248	0.00	29.877 
13:30	37.0	37.0	37.0	68	27.4	1	4	248	0.00	29.876 
13:35	37.0	37.0	37.0	68	27.4	1	4	248	0.00	29.876 
13:40	36.9	36.9	36.9	67	27.0	1	4	248	0.00	29.876 
13:45	36.8	36.8	36.8	66	26.5	1	3	248	0.00	29.872 
13:50	36.6	36.6	36.6	66	26.3	1	3	292	0.00	29.872 
13:55	36.8	36.8	36.8	67	26.9	0	3	292	0.00	29.872 
14:00	37.0	37.0	37.0	68	27.4	1	5	292	0.00	29.876 
14:05	37.0	37.0	37.0	68	27.4	1	4	225	0.00	29.876 
14:10	36.8	36.8	36.8	68	27.2	2	6	248	0.00	29.876 
14:15	36.6	36.6	36.6	69	27.4	1	3	248	0.00	29.876 
14:20	36.6	36.6	36.6	69	27.4	2	4	248	0.00	29.876 
14:25	36.6	36.6	36.6	70	27.8	1	4	248	0.00	29.876 
14:30	36.6	36.6	36.6	69	27.4	1	4	248	0.00	29.872 
14:35	36.5	36.5	36.5	70	27.7	2	5	248	0.00	29.872 
14:40	36.3	36.3	36.3	71	27.8	2	4	248	0.00	29.872 
14:45	36.2	36.2	36.2	71	27.7	2	4	248	0.00	29.873 
14:50	36.2	36.2	36.2	72	28.1	1	5	248	0.00	29.873 
14:55	36.0	36.0	36.0	72	27.9	2	4	248	0.00	29.873 
15:00	35.9	35.9	35.9	73	28.1	1	4	248	0.00	29.871 
15:05	35.9	35.9	35.9	73	28.1	1	5	248	0.00	29.871 
15:10	35.9	35.9	35.9	74	28.4	1	3	248	0.00	29.871 
15:15	35.9	35.9	35.9	74	28.4	1	4	338	0.00	29.871 
15:20	35.9	35.9	35.9	73	28.1	1	4	248	0.00	29.871 
15:25	36.0	36.0	36.0	73	28.2	1	3	248	0.00	29.871 
15:30	36.2	36.2	36.2	73	28.4	1	2	270	0.00	29.878 
15:35	36.3	36.3	36.3	71	27.8	2	3	270	0.00	29.878 
15:40	36.2	36.2	36.2	71	27.7	2	4	248	0.00	29.878 
15:45	36.0	36.0	36.0	72	27.9	1	5	248	0.00	29.881 
15:50	36.0	36.0	36.0	73	28.2	1	4	248	0.00	29.881 
15:55	35.9	35.9	35.9	74	28.4	1	4	270	0.00	29.881 
16:00	35.8	35.8	35.8	74	28.3	1	4	270	0.00	29.882 
16:05	35.6	35.6	35.6	75	28.5	1	4	248	0.00	29.882 
16:10	35.3	35.3	35.3	75	28.2	1	3	248	0.00	29.882 
16:15	35.2	35.2	35.2	76	28.4	1	3	248	0.00	29.884 
16:20	34.9	34.9	34.9	77	28.4	1	2	270	0.00	29.884 
16:25	34.7	34.7	34.7	79	28.9	1	3	270	0.00	29.884 
16:30	34.4	34.4	34.4	80	28.9	0	2	338	0.00	29.883 
16:35	34.3	34.3	34.3	81	29.1	0	1	338	0.00	29.883 
16:40	34.0	34.0	34.0	82	29.1	0	1	338	0.00	29.883 
16:45	33.7	33.7	33.7	83	29.1	0	2	338	0.00	29.882 
16:50	33.5	33.5	33.5	84	29.2	1	3	338	0.00	29.882 
16:55	33.4	33.4	33.4	85	29.4	0	2	338	0.00	29.882 
17:00	33.4	33.4	33.4	86	29.7	0	2	270	0.00	29.890 
17:05	33.4	33.4	33.4	86	29.7	0	2	270	0.00	29.890 
17:10	33.2	33.2	33.2	87	29.8	1	3	270	0.00	29.890 
17:15	33.2	33.2	33.2	88	30.0	0	1	270	0.00	29.894 
17:20	33.2	33.2	33.2	88	30.0	1	4	270	0.00	29.894 
17:25	33.2	33.2	33.2	88	30.0	1	3	270	0.00	29.894 
17:30	33.2	33.2	33.2	89	30.3	0	2	270	0.00	29.897 
17:35	33.1	33.1	33.1	89	30.2	1	3	270	0.00	29.897 
17:40	33.1	33.1	33.1	89	30.2	1	2	270	0.00	29.897 
17:45	33.1	33.1	33.1	89	30.2	1	2	270	0.00	29.898 
17:50	33.1	33.1	33.1	89	30.2	0	1	270	0.00	29.898 
17:55	33.1	33.1	33.1	89	30.2	0	3	270	0.00	29.898 
18:00	33.1	33.1	33.1	89	30.2	0	3	270	0.00	29.899 
18:05	33.1	33.1	33.1	89	30.2	0	1	270	0.00	29.899 
18:10	33.1	33.1	33.1	89	30.2	0	2	270	0.00	29.899 
18:15	32.9	32.9	32.9	89	30.0	0	1	270	0.00	29.899 
18:20	32.9	32.9	32.9	89	30.0	0	4	270	0.00	29.899 
18:25	32.8	32.8	32.8	89	29.9	0	2	248	0.00	29.899 
18:30	32.7	32.7	32.7	89	29.8	0	3	248	0.00	29.902 
18:35	32.5	32.5	32.5	88	29.3	1	4	248	0.00	29.902 
18:40	32.5	32.5	32.5	88	29.3	1	4	248	0.00	29.902 
18:45	32.5	32.5	32.5	88	29.3	1	4	248	0.00	29.908 
18:50	32.5	32.5	32.5	88	29.3	0	2	248	0.00	29.908 
18:55	32.5	32.5	32.5	89	29.6	0	2	248	0.00	29.908 
19:00	32.5	32.5	32.5	89	29.6	0	1	248	0.00	29.912 
19:05	32.5	32.5	32.5	89	29.6	1	2	248	0.00	29.912 
19:10	32.4	32.4	32.4	89	29.5	1	5	248	0.00	29.912 
19:15	32.4	32.4	32.4	88	29.3	1	4	248	0.00	29.918 
19:20	32.2	32.2	32.2	88	29.1	1	5	248	0.00	29.918 
19:25	32.2	32.2	32.2	88	29.1	1	4	248	0.00	29.918 
19:30	32.1	32.1	32.1	88	29.0	1	3	225	0.00	29.924 
19:35	31.9	31.9	31.9	88	28.8	1	4	248	0.00	29.924 
19:40	31.9	31.9	31.9	88	28.8	1	5	248	0.00	29.924 
19:45	31.8	31.8	31.8	88	28.7	1	4	248	0.00	29.922 
19:50	31.8	31.8	31.8	88	28.7	1	6	248	0.00	29.922 
19:55	31.8	31.8	31.8	88	28.7	1	4	270	0.00	29.922 
20:00	31.6	31.6	31.6	88	28.5	1	3	270	0.00	29.920 
20:05	31.5	31.5	31.5	87	28.1	1	5	248	0.00	29.920 
20:10	31.5	31.5	31.5	87	28.1	1	3	248	0.00	29.920 
20:15	31.5	31.5	31.5	87	28.1	1	4	248	0.00	29.918 
20:20	31.3	31.3	31.3	87	27.9	2	4	248	0.00	29.918 
20:25	31.3	31.3	31.3	87	27.9	2	5	270	0.00	29.918 
20:30	31.2	31.2	31.2	88	28.1	2	4	248	0.00	29.919 
20:35	31.0	31.0	31.0	88	27.9	1	4	248	0.00	29.919 
20:40	31.0	31.0	31.0	88	27.9	1	3	270	0.00	29.919 
20:45	30.9	30.9	30.9	88	27.8	1	4	248	0.00	29.923 
20:50	30.9	30.9	30.9	88	27.8	1	4	248	0.00	29.923 
20:55	30.7	30.7	30.7	88	27.6	1	3	248	0.00	29.923 
21:00	30.7	30.7	30.7	88	27.6	1	4	248	0.00	29.925 
21:05	30.6	30.6	30.6	89	27.8	1	4	248	0.00	29.925 
21:10	30.6	30.6	30.6	89	27.8	1	2	248	0.00	29.925 
21:15	30.6	30.6	30.6	89	27.8	1	3	248	0.00	29.926 
21:20	30.4	30.4	30.4	89	27.6	0	3	248	0.00	29.926 
21:25	30.4	30.4	30.4	90	27.8	0	2	248	0.00	29.926 
21:30	30.4	30.4	30.4	90	27.8	0	3	248	0.00	29.929 
21:35	30.4	30.4	30.4	90	27.8	1	3	248	0.00	29.929 
21:40	30.4	30.4	30.4	90	27.8	1	4	248	0.00	29.929 
21:45	30.4	30.4	30.4	90	27.8	0	1	248	0.00	29.929 
21:50	30.4	30.4	30.4	90	27.8	1	2	248	0.00	29.929 
21:55	30.4	30.4	30.4	90	27.8	1	3	248	0.00	29.929 
22:00	30.4	30.4	30.4	90	27.8	0	2	248	0.00	29.929 
22:05	30.4	30.4	30.4	90	27.8	1	4	248	0.00	29.929 
22:10	30.4	30.4	30.4	90	27.8	1	4	248	0.00	29.929 
22:15	30.4	30.4	30.4	90	27.8	0	2	248	0.00	29.927 
22:20	30.3	30.3	30.3	90	27.7	1	3	248	0.00	29.927 
22:25	30.3	30.3	30.3	90	27.7	1	2	270	0.00	29.927 
22:30	30.3	30.3	30.3	90	27.7	1	4	248	0.00	29.927 
22:35	30.3	30.3	30.3	90	27.7	1	4	248	0.00	29.927 
22:40	30.3	30.3	30.3	90	27.7	1	3	248	0.00	29.927 
22:45	30.3	30.3	30.3	90	27.7	1	6	248	0.00	29.929 
22:50	30.3	30.3	30.3	90	27.7	1	5	248	0.00	29.929 
22:55	30.1	30.1	30.1	90	27.5	2	6	270	0.00	29.929 
23:00	30.1	30.1	30.1	90	27.5	1	4	270	0.00	29.931 
23:05	29.8	29.8	29.8	90	27.2	2	4	248	0.00	29.931 
23:10	29.7	29.7	29.7	90	27.1	2	5	270	0.00	29.931 
23:15	29.5	29.5	29.5	89	26.7	1	5	248	0.00	29.929 
23:20	29.4	29.4	29.4	89	26.6	1	4	248	0.00	29.929 
23:25	29.4	29.4	29.4	89	26.6	2	6	248	0.00	29.929 
23:30	29.3	29.3	29.3	89	26.5	1	4	248	0.00	29.929 
23:35	29.1	29.1	29.1	89	26.3	1	3	248	0.00	29.929 
23:40	29.1	29.1	29.1	89	26.3	1	4	248	0.00	29.929 
23:45	29.0	29.0	29.0	89	26.2	2	4	248	0.00	29.929 
23:50	29.0	29.0	29.0	89	26.2	0	2	248	0.00	29.929 
23:55	29.0	29.0	29.0	89	26.2	1	3	248	0.00	29.929 

CoCoRaHS
IN-AL-39
A2 Web Hosting
Creative Commons License
GoDaddy
search engine by freefind advanced

loaded 2018-11-21 01:27:11 • last modified 2010-11-18 10:43:29
Privacy PolicyDisclaimer
• wx.awcolley.com is powered by PmWiki v.2002016 •
• all content (unless otherwise noted) © 2018 A W Colley